createdAt,value
2019-03-22T00:00:07.629Z,0.00
2019-03-22T00:01:07.656Z,0.00
2019-03-22T00:02:07.684Z,0.00
2019-03-22T00:03:07.716Z,0.00
2019-03-22T00:04:07.742Z,0.00
2019-03-22T00:05:07.769Z,0.00
2019-03-22T00:06:07.802Z,0.00
2019-03-22T00:07:07.827Z,0.00
2019-03-22T00:08:07.858Z,0.00
2019-03-22T00:09:07.881Z,0.00
2019-03-22T00:10:07.913Z,0.00
2019-03-22T00:11:07.937Z,0.00
2019-03-22T00:12:07.967Z,0.00
2019-03-22T00:13:07.996Z,0.00
2019-03-22T00:14:08.022Z,0.00
2019-03-22T00:15:08.051Z,0.00
2019-03-22T00:16:08.082Z,0.00
2019-03-22T00:17:08.105Z,0.00
2019-03-22T00:18:08.137Z,0.00
2019-03-22T00:19:08.162Z,0.00
2019-03-22T00:20:08.191Z,0.00
2019-03-22T00:21:08.218Z,0.00
2019-03-22T00:22:08.245Z,0.00
2019-03-22T00:23:08.273Z,0.00
2019-03-22T00:24:08.302Z,0.00
2019-03-22T00:25:08.330Z,0.00
2019-03-22T00:26:08.358Z,0.00
2019-03-22T00:27:16.419Z,0.00
2019-03-22T00:28:08.414Z,0.00
2019-03-22T00:29:08.442Z,0.00
2019-03-22T00:30:08.468Z,0.00
2019-03-22T00:31:08.499Z,0.00
2019-03-22T00:32:08.524Z,0.00
2019-03-22T00:33:08.559Z,0.00
2019-03-22T00:34:08.582Z,0.00
2019-03-22T00:35:08.607Z,0.00
2019-03-22T00:36:08.635Z,0.00
2019-03-22T00:37:08.664Z,0.00
2019-03-22T00:38:08.690Z,0.00
2019-03-22T00:39:08.718Z,0.00
2019-03-22T00:40:08.746Z,0.00
2019-03-22T00:41:08.775Z,0.00
2019-03-22T00:42:08.799Z,0.00
2019-03-22T00:43:08.827Z,0.00
2019-03-22T00:44:08.855Z,0.00
2019-03-22T00:45:08.885Z,0.00
2019-03-22T00:46:08.922Z,0.00
2019-03-22T00:47:08.942Z,0.00
2019-03-22T00:48:08.968Z,0.00
2019-03-22T00:49:08.994Z,0.00
2019-03-22T00:50:09.024Z,0.00
2019-03-22T00:51:09.049Z,0.00
2019-03-22T00:52:09.074Z,0.00
2019-03-22T00:53:09.103Z,0.00
2019-03-22T00:54:09.129Z,0.00
2019-03-22T00:55:09.159Z,0.00
2019-03-22T00:56:09.185Z,0.00
2019-03-22T00:57:09.212Z,0.00
2019-03-22T00:58:09.240Z,0.00
2019-03-22T00:59:09.267Z,0.00
2019-03-22T01:00:09.297Z,0.00
2019-03-22T01:01:09.322Z,0.00
2019-03-22T01:02:09.351Z,0.00
2019-03-22T01:03:09.374Z,0.00
2019-03-22T01:04:09.403Z,0.00
2019-03-22T01:05:09.429Z,0.00
2019-03-22T01:06:09.470Z,0.00
2019-03-22T01:07:09.484Z,0.00
2019-03-22T01:08:09.516Z,0.00
2019-03-22T01:09:09.538Z,0.00
2019-03-22T01:10:09.569Z,0.00
2019-03-22T01:11:09.595Z,0.00
2019-03-22T01:12:09.618Z,0.00
2019-03-22T01:13:09.647Z,0.00
2019-03-22T01:14:09.674Z,0.00
2019-03-22T01:15:09.700Z,0.00
2019-03-22T01:16:09.727Z,0.00
2019-03-22T01:17:09.758Z,0.00
2019-03-22T01:18:09.781Z,0.00
2019-03-22T01:19:09.807Z,0.00
2019-03-22T01:20:09.836Z,0.00
2019-03-22T01:21:09.865Z,0.00
2019-03-22T01:22:09.903Z,0.00
2019-03-22T01:23:09.915Z,0.00
2019-03-22T01:24:09.948Z,0.00
2019-03-22T01:25:09.968Z,0.00
2019-03-22T01:26:09.996Z,0.00
2019-03-22T01:27:10.020Z,0.00
2019-03-22T01:28:10.052Z,0.00
2019-03-22T01:29:10.086Z,0.00
2019-03-22T01:30:10.118Z,0.00
2019-03-22T01:31:10.130Z,0.00
2019-03-22T01:32:10.154Z,0.00
2019-03-22T01:33:10.186Z,0.00
2019-03-22T01:34:10.211Z,0.00
2019-03-22T01:35:10.244Z,0.00
2019-03-22T01:36:10.264Z,0.00
2019-03-22T01:37:10.288Z,0.00
2019-03-22T01:38:10.318Z,0.00
2019-03-22T01:39:10.345Z,0.00
2019-03-22T01:40:10.373Z,0.00
2019-03-22T01:41:10.444Z,0.00
2019-03-22T01:42:10.424Z,0.00
2019-03-22T01:43:10.448Z,0.00
2019-03-22T01:44:10.476Z,0.00
2019-03-22T01:45:10.502Z,0.00
2019-03-22T01:46:10.529Z,0.00
2019-03-22T01:47:10.561Z,0.00
2019-03-22T01:48:10.582Z,0.00
2019-03-22T01:49:10.609Z,0.00
2019-03-22T01:50:10.631Z,0.00
2019-03-22T01:51:10.660Z,0.00
2019-03-22T01:52:10.688Z,0.00
2019-03-22T01:53:10.718Z,0.00
2019-03-22T01:54:10.740Z,0.00
2019-03-22T01:55:10.763Z,0.00
2019-03-22T01:56:10.794Z,0.00
2019-03-22T01:57:10.818Z,0.00
2019-03-22T01:58:10.846Z,0.00
2019-03-22T01:59:10.871Z,0.00
2019-03-22T02:00:10.895Z,0.00
2019-03-22T02:01:10.925Z,0.00
2019-03-22T02:02:10.949Z,0.00
2019-03-22T02:03:10.979Z,0.00
2019-03-22T02:04:11.002Z,0.00
2019-03-22T02:05:11.032Z,0.00
2019-03-22T02:06:11.054Z,0.00
2019-03-22T02:07:11.081Z,0.00
2019-03-22T02:08:11.105Z,0.00
2019-03-22T02:09:11.133Z,0.00
2019-03-22T02:10:11.161Z,0.00
2019-03-22T02:11:11.187Z,0.00
2019-03-22T02:12:11.212Z,0.00
2019-03-22T02:13:11.241Z,0.00
2019-03-22T02:14:11.265Z,0.00
2019-03-22T02:15:11.291Z,0.00
2019-03-22T02:16:11.319Z,0.00
2019-03-22T02:17:11.344Z,0.00
2019-03-22T02:18:11.369Z,0.00
2019-03-22T02:19:11.394Z,0.00
2019-03-22T02:20:11.423Z,0.00
2019-03-22T02:21:11.447Z,0.00
2019-03-22T02:22:11.475Z,0.00
2019-03-22T02:23:11.502Z,0.00
2019-03-22T02:24:11.526Z,0.00
2019-03-22T02:25:11.552Z,0.00
2019-03-22T02:26:11.580Z,0.00
2019-03-22T02:27:11.602Z,0.00
2019-03-22T02:28:11.638Z,0.00
2019-03-22T02:29:11.658Z,0.00
2019-03-22T02:30:11.685Z,0.00
2019-03-22T02:31:11.707Z,0.00
2019-03-22T02:32:11.736Z,0.00
2019-03-22T02:33:11.761Z,0.00
2019-03-22T02:34:11.792Z,0.00
2019-03-22T02:35:26.910Z,0.00
2019-03-22T02:36:11.838Z,0.00
2019-03-22T02:37:11.867Z,0.00
2019-03-22T02:38:11.890Z,0.00
2019-03-22T02:39:11.975Z,0.00
2019-03-22T02:40:11.942Z,0.00
2019-03-22T02:41:12.004Z,0.00
2019-03-22T02:42:11.995Z,0.00
2019-03-22T02:43:12.022Z,0.00
2019-03-22T02:44:12.047Z,0.00
2019-03-22T02:45:12.076Z,0.00
2019-03-22T02:46:12.099Z,0.00
2019-03-22T02:47:12.124Z,0.00
2019-03-22T02:48:12.150Z,0.00
2019-03-22T02:49:12.175Z,0.00
2019-03-22T02:50:18.437Z,0.00
2019-03-22T02:51:12.225Z,0.00
2019-03-22T02:52:12.255Z,0.00
2019-03-22T02:53:12.286Z,0.00
2019-03-22T02:54:12.305Z,0.00
2019-03-22T02:55:12.335Z,0.00
2019-03-22T02:56:12.523Z,0.00
2019-03-22T02:57:12.383Z,0.00
2019-03-22T02:58:20.418Z,0.00
2019-03-22T02:59:12.434Z,0.00
2019-03-22T03:00:12.478Z,0.00
2019-03-22T03:01:12.495Z,0.00
2019-03-22T03:02:12.527Z,0.00
2019-03-22T03:03:12.540Z,0.00
2019-03-22T03:04:12.563Z,0.00
2019-03-22T03:05:12.601Z,0.00
2019-03-22T03:06:12.618Z,0.00
2019-03-22T03:07:12.636Z,0.00
2019-03-22T03:08:12.665Z,0.00
2019-03-22T03:09:12.690Z,0.00
2019-03-22T03:10:12.714Z,0.00
2019-03-22T03:11:12.739Z,0.00
2019-03-22T03:12:12.768Z,0.00
2019-03-22T03:13:12.792Z,0.00
2019-03-22T03:14:12.818Z,0.00
2019-03-22T03:15:12.856Z,0.00
2019-03-22T03:16:12.880Z,0.00
2019-03-22T03:17:12.894Z,0.00
2019-03-22T03:18:12.928Z,0.00
2019-03-22T03:19:12.943Z,0.00
2019-03-22T03:20:12.979Z,0.00
2019-03-22T03:21:12.999Z,0.00
2019-03-22T03:22:13.024Z,0.00
2019-03-22T03:23:13.050Z,0.00
2019-03-22T03:24:13.075Z,0.00
2019-03-22T03:25:13.104Z,0.00
2019-03-22T03:26:13.130Z,0.00
2019-03-22T03:27:13.154Z,0.00
2019-03-22T03:28:13.175Z,0.00
2019-03-22T03:29:13.201Z,0.00
2019-03-22T03:30:13.229Z,0.00
2019-03-22T03:31:13.254Z,0.00
2019-03-22T03:32:13.279Z,0.00
2019-03-22T03:33:13.322Z,0.00
2019-03-22T03:34:13.331Z,0.00
2019-03-22T03:35:13.362Z,0.00
2019-03-22T03:36:13.380Z,0.00
2019-03-22T03:37:13.404Z,0.00
2019-03-22T03:38:13.432Z,0.00
2019-03-22T03:39:13.455Z,0.00
2019-03-22T03:40:13.484Z,0.00
2019-03-22T03:41:13.510Z,0.00
2019-03-22T03:42:13.535Z,0.00
2019-03-22T03:43:13.560Z,0.00
2019-03-22T03:44:13.587Z,0.00
2019-03-22T03:45:13.615Z,4.00
2019-03-22T03:46:13.655Z,4.00
2019-03-22T03:47:13.667Z,4.00
2019-03-22T03:48:13.686Z,0.00
2019-03-22T03:49:13.711Z,4.00
2019-03-22T03:50:13.737Z,4.00
2019-03-22T03:51:13.882Z,4.00
2019-03-22T03:52:13.791Z,4.00
2019-03-22T03:53:13.836Z,8.00
2019-03-22T03:54:13.845Z,8.00
2019-03-22T03:55:13.866Z,8.00
2019-03-22T03:56:13.890Z,8.00
2019-03-22T03:57:13.916Z,8.00
2019-03-22T03:58:13.941Z,12.00
2019-03-22T03:59:13.965Z,16.00
2019-03-22T04:00:13.991Z,16.00
2019-03-22T04:01:14.017Z,20.00
2019-03-22T04:02:14.043Z,24.00
2019-03-22T04:03:14.070Z,28.00
2019-03-22T04:04:14.099Z,36.00
2019-03-22T04:05:14.787Z,40.00
2019-03-22T04:06:14.146Z,48.00
2019-03-22T04:07:14.171Z,56.00
2019-03-22T04:08:14.194Z,60.00
2019-03-22T04:09:14.222Z,72.00
2019-03-22T04:10:14.247Z,80.00
2019-03-22T04:11:14.270Z,96.00
2019-03-22T04:12:14.297Z,112.00
2019-03-22T04:13:14.325Z,124.00
2019-03-22T04:14:14.348Z,140.00
2019-03-22T04:15:14.378Z,156.00
2019-03-22T04:16:14.413Z,176.00
2019-03-22T04:17:14.425Z,196.00
2019-03-22T04:18:14.452Z,220.00
2019-03-22T04:19:14.472Z,244.00
2019-03-22T04:20:14.504Z,272.00
2019-03-22T04:21:14.527Z,300.00
2019-03-22T04:22:14.558Z,328.00
2019-03-22T04:23:14.581Z,360.00
2019-03-22T04:24:14.629Z,396.00
2019-03-22T04:25:14.645Z,428.00
2019-03-22T04:26:14.653Z,468.00
2019-03-22T04:27:14.675Z,508.00
2019-03-22T04:28:14.702Z,548.00
2019-03-22T04:29:14.727Z,592.00
2019-03-22T04:30:14.754Z,636.00
2019-03-22T04:31:14.777Z,680.00
2019-03-22T04:32:14.805Z,728.00
2019-03-22T04:33:14.828Z,776.00
2019-03-22T04:34:14.853Z,832.00
2019-03-22T04:35:14.889Z,884.00
2019-03-22T04:36:14.904Z,940.00
2019-03-22T04:37:14.930Z,996.00
2019-03-22T04:38:14.955Z,1052.00
2019-03-22T04:39:14.979Z,1112.00
2019-03-22T04:40:15.007Z,1168.00
2019-03-22T04:41:15.030Z,1228.00
2019-03-22T04:42:15.057Z,1292.00
2019-03-22T04:43:15.080Z,1352.00
2019-03-22T04:44:15.103Z,1420.00
2019-03-22T04:45:15.131Z,1484.00
2019-03-22T04:46:15.158Z,1548.00
2019-03-22T04:47:15.179Z,1632.00
2019-03-22T04:48:15.213Z,1768.00
2019-03-22T04:49:15.230Z,1928.00
2019-03-22T04:50:15.259Z,2072.00
2019-03-22T04:51:15.286Z,2168.00
2019-03-22T04:52:15.307Z,2264.00
2019-03-22T04:53:15.331Z,2348.00
2019-03-22T04:54:15.360Z,2448.00
2019-03-22T04:55:15.382Z,2556.00
2019-03-22T04:56:15.411Z,2668.00
2019-03-22T04:57:15.434Z,2784.00
2019-03-22T04:58:15.460Z,2896.00
2019-03-22T04:59:19.453Z,2996.00
2019-03-22T05:00:15.512Z,3096.00
2019-03-22T05:01:15.576Z,3204.00
2019-03-22T05:02:15.561Z,3284.00
2019-03-22T05:03:15.590Z,3372.00
2019-03-22T05:04:15.618Z,3460.00
2019-03-22T05:05:15.644Z,3576.00
2019-03-22T05:06:15.669Z,3696.00
2019-03-22T05:07:15.693Z,3816.00
2019-03-22T05:08:15.725Z,3924.00
2019-03-22T05:09:15.750Z,4028.00
2019-03-22T05:10:15.774Z,4180.00
2019-03-22T05:11:15.807Z,4316.00
2019-03-22T05:12:15.831Z,4408.00
2019-03-22T05:13:15.855Z,4524.00
2019-03-22T05:14:15.884Z,4640.00
2019-03-22T05:15:15.910Z,4744.00
2019-03-22T05:16:15.935Z,4876.00
2019-03-22T05:17:15.965Z,5000.00
2019-03-22T05:18:15.993Z,5144.00
2019-03-22T05:19:16.020Z,5260.00
2019-03-22T05:20:16.049Z,5380.00
2019-03-22T05:21:16.075Z,5552.00
2019-03-22T05:22:16.102Z,5704.00
2019-03-22T05:23:16.130Z,5848.00
2019-03-22T05:24:18.161Z,6024.00
2019-03-22T05:25:16.187Z,6208.00
2019-03-22T05:26:16.216Z,6440.00
2019-03-22T05:27:16.245Z,6644.00
2019-03-22T05:28:16.269Z,6868.00
2019-03-22T05:29:16.300Z,6972.00
2019-03-22T05:30:16.325Z,7060.00
2019-03-22T05:31:16.357Z,7256.00
2019-03-22T05:32:16.389Z,7512.00
2019-03-22T05:33:16.413Z,7696.00
2019-03-22T05:34:16.445Z,7840.00
2019-03-22T05:35:16.485Z,8016.00
2019-03-22T05:36:16.495Z,8212.00
2019-03-22T05:37:16.528Z,8440.00
2019-03-22T05:38:16.556Z,8636.00
2019-03-22T05:39:16.584Z,8800.00
2019-03-22T05:40:16.610Z,9064.00
2019-03-22T05:41:16.641Z,9284.00
2019-03-22T05:42:16.673Z,9348.00
2019-03-22T05:44:17.338Z,9964.00
2019-03-22T05:45:16.756Z,10116.00
2019-03-22T05:46:16.786Z,10276.00
2019-03-22T05:47:16.818Z,10652.00
2019-03-22T05:48:16.848Z,10860.00
2019-03-22T05:49:16.874Z,11040.00
2019-03-22T05:50:16.904Z,11296.00
2019-03-22T05:51:16.934Z,11352.00
2019-03-22T05:52:16.962Z,11568.00
2019-03-22T05:53:16.997Z,11704.00
2019-03-22T05:54:17.024Z,12196.00
2019-03-22T05:55:17.052Z,12348.00
2019-03-22T05:56:17.083Z,12492.00
2019-03-22T05:57:17.118Z,12580.00
2019-03-22T05:58:17.148Z,12876.00
2019-03-22T05:59:17.179Z,13236.00
2019-03-22T06:00:17.206Z,13484.00
2019-03-22T06:01:17.233Z,13428.00
2019-03-22T06:02:17.264Z,13920.00
2019-03-22T06:03:17.295Z,14016.00
2019-03-22T06:04:17.327Z,13348.00
2019-03-22T06:05:17.383Z,14560.00
2019-03-22T06:06:17.386Z,15264.00
2019-03-22T06:07:17.417Z,15776.00
2019-03-22T06:08:17.451Z,16448.00
2019-03-22T06:09:17.480Z,16352.00
2019-03-22T06:10:17.510Z,16192.00
2019-03-22T06:11:17.541Z,16384.00
2019-03-22T06:12:17.574Z,16288.00
2019-03-22T06:13:17.603Z,16608.00
2019-03-22T06:14:17.633Z,16640.00
2019-03-22T06:15:17.664Z,16736.00
2019-03-22T06:16:17.703Z,16992.00
2019-03-22T06:17:17.726Z,17536.00
2019-03-22T06:18:17.758Z,17632.00
2019-03-22T06:19:17.789Z,17952.00
2019-03-22T06:20:17.820Z,18656.00
2019-03-22T06:21:17.854Z,19232.00
2019-03-22T06:22:17.885Z,19776.00
2019-03-22T06:23:17.916Z,20160.00
2019-03-22T06:24:17.950Z,20160.00
2019-03-22T06:25:17.984Z,20192.00
2019-03-22T06:26:18.017Z,20704.00
2019-03-22T06:27:18.043Z,20576.00
2019-03-22T06:28:18.076Z,20576.00
2019-03-22T06:29:18.108Z,21216.00
2019-03-22T06:30:18.142Z,22048.00
2019-03-22T06:31:20.661Z,22624.00
2019-03-22T06:32:18.205Z,22592.00
2019-03-22T06:33:18.236Z,22752.00
2019-03-22T06:34:18.270Z,22688.00
2019-03-22T06:35:18.302Z,22944.00
2019-03-22T06:36:18.338Z,23968.00
2019-03-22T06:37:18.374Z,24064.00
2019-03-22T06:38:18.404Z,24224.00
2019-03-22T06:39:18.429Z,23936.00
2019-03-22T06:40:18.463Z,23904.00
2019-03-22T06:41:18.498Z,24320.00
2019-03-22T06:42:18.530Z,25568.00
2019-03-22T06:43:18.559Z,25536.00
2019-03-22T06:44:18.591Z,25280.00
2019-03-22T06:45:18.625Z,25056.00
2019-03-22T06:46:18.658Z,24768.00
2019-03-22T06:47:18.693Z,24480.00
2019-03-22T06:48:18.722Z,23840.00
2019-03-22T06:49:18.756Z,24448.00
2019-03-22T06:50:18.791Z,23072.00
2019-03-22T06:51:18.820Z,21472.00
2019-03-22T06:52:18.853Z,19200.00
2019-03-22T06:53:18.889Z,18176.00
2019-03-22T06:54:30.676Z,18400.00
2019-03-22T06:55:18.952Z,18592.00
2019-03-22T06:56:18.987Z,18080.00
2019-03-22T06:57:19.023Z,17120.00
2019-03-22T06:58:19.052Z,16768.00
2019-03-22T06:59:19.085Z,17120.00
2019-03-22T07:00:19.118Z,20544.00
2019-03-22T07:01:19.152Z,22240.00
2019-03-22T07:02:19.186Z,19904.00
2019-03-22T07:03:19.219Z,19488.00
2019-03-22T07:04:19.255Z,20224.00
2019-03-22T07:05:19.289Z,20736.00
2019-03-22T07:06:19.322Z,20192.00
2019-03-22T07:07:19.359Z,19552.00
2019-03-22T07:08:19.394Z,18592.00
2019-03-22T07:09:19.419Z,18368.00
2019-03-22T07:10:19.452Z,18304.00
2019-03-22T07:11:19.485Z,18944.00
2019-03-22T07:12:19.520Z,19168.00
2019-03-22T07:13:19.555Z,19424.00
2019-03-22T07:14:19.593Z,19872.00
2019-03-22T07:15:19.623Z,20064.00
2019-03-22T07:16:19.656Z,20128.00
2019-03-22T07:17:19.688Z,20000.00
2019-03-22T07:18:19.722Z,20096.00
2019-03-22T07:19:19.757Z,19968.00
2019-03-22T07:20:19.791Z,20544.00
2019-03-22T07:21:19.827Z,19296.00
2019-03-22T07:22:19.859Z,20096.00
2019-03-22T07:23:19.891Z,20640.00
2019-03-22T07:24:19.925Z,19424.00
2019-03-22T07:25:19.961Z,19904.00
2019-03-22T07:26:19.995Z,20928.00
2019-03-22T07:27:20.032Z,22112.00
2019-03-22T07:28:20.064Z,22880.00
2019-03-22T07:29:20.094Z,22368.00
2019-03-22T07:30:20.130Z,23808.00
2019-03-22T07:31:20.163Z,25824.00
2019-03-22T07:32:20.199Z,24768.00
2019-03-22T07:33:20.234Z,25184.00
2019-03-22T07:34:20.271Z,27264.00
2019-03-22T07:35:20.299Z,27296.00
2019-03-22T07:36:20.337Z,28928.00
2019-03-22T07:37:20.372Z,31872.00
2019-03-22T07:38:20.410Z,33344.00
2019-03-22T07:39:20.437Z,33856.00
2019-03-22T07:40:20.472Z,33408.00
2019-03-22T07:41:20.507Z,33984.00
2019-03-22T07:42:20.544Z,34400.00
2019-03-22T07:43:20.582Z,34848.00
2019-03-22T07:44:20.611Z,35712.00
2019-03-22T07:45:20.649Z,36288.00
2019-03-22T07:46:20.681Z,37216.00
2019-03-22T07:47:20.721Z,36768.00
2019-03-22T07:48:20.753Z,36160.00
2019-03-22T07:49:20.789Z,35616.00
2019-03-22T07:50:20.821Z,37184.00
2019-03-22T07:51:20.909Z,37440.00
2019-03-22T07:52:20.894Z,36800.00
2019-03-22T07:53:20.926Z,37824.00
2019-03-22T07:54:20.961Z,38304.00
2019-03-22T07:55:20.995Z,38496.00
2019-03-22T07:56:21.037Z,38816.00
2019-03-22T07:57:21.067Z,38304.00
2019-03-22T07:58:21.104Z,39424.00
2019-03-22T07:59:21.136Z,41568.00
2019-03-22T08:00:30.139Z,42528.00
2019-03-22T08:01:21.205Z,41984.00
2019-03-22T08:02:21.246Z,38176.00
2019-03-22T08:03:21.278Z,34112.00
2019-03-22T08:04:21.314Z,31392.00
2019-03-22T08:05:21.349Z,30208.00
2019-03-22T08:06:21.382Z,29856.00
2019-03-22T08:07:21.415Z,29760.00
2019-03-22T08:08:21.454Z,31456.00
2019-03-22T08:09:21.489Z,34560.00
2019-03-22T08:10:21.609Z,37408.00
2019-03-22T08:11:24.541Z,35872.00
2019-03-22T08:12:21.592Z,34752.00
2019-03-22T08:13:21.659Z,37216.00
2019-03-22T08:14:21.669Z,36064.00
2019-03-22T08:15:21.698Z,31232.00
2019-03-22T08:16:21.737Z,29888.00
2019-03-22T08:17:21.769Z,28704.00
2019-03-22T08:18:21.806Z,28128.00
2019-03-22T08:19:21.840Z,26176.00
2019-03-22T08:20:21.879Z,23712.00
2019-03-22T08:21:21.919Z,23232.00
2019-03-22T08:22:21.952Z,23008.00
2019-03-22T08:23:22.016Z,22464.00
2019-03-22T08:24:22.021Z,21888.00
2019-03-22T08:25:22.096Z,22240.00
2019-03-22T08:26:22.096Z,23680.00
2019-03-22T08:27:22.129Z,24416.00
2019-03-22T08:28:22.167Z,24704.00
2019-03-22T08:29:22.201Z,25664.00
2019-03-22T08:30:22.264Z,27392.00
2019-03-22T08:31:22.269Z,28928.00
2019-03-22T08:32:22.304Z,30208.00
2019-03-22T08:33:22.345Z,31552.00
2019-03-22T08:34:22.386Z,34016.00
2019-03-22T08:35:22.419Z,36256.00
2019-03-22T08:36:22.461Z,41376.00
2019-03-22T08:37:22.491Z,42752.00
2019-03-22T08:38:22.550Z,40320.00
2019-03-22T08:39:22.558Z,39584.00
2019-03-22T08:40:22.618Z,37728.00
2019-03-22T08:41:23.914Z,35840.00
2019-03-22T08:42:22.680Z,35840.00
2019-03-22T08:43:22.710Z,35808.00
2019-03-22T08:44:22.740Z,35264.00
2019-03-22T08:45:22.786Z,35104.00
2019-03-22T08:46:22.857Z,35872.00
2019-03-22T08:47:33.138Z,37344.00
2019-03-22T08:48:22.886Z,38560.00
2019-03-22T08:49:23.079Z,38720.00
2019-03-22T08:50:22.961Z,37984.00
2019-03-22T08:51:22.997Z,38112.00
2019-03-22T08:52:23.034Z,43040.00
2019-03-22T08:53:23.085Z,49280.00
2019-03-22T08:54:23.128Z,53376.00
2019-03-22T08:55:23.198Z,55776.00
2019-03-22T08:56:23.181Z,56672.00
2019-03-22T08:57:25.020Z,55840.00
2019-03-22T08:58:23.255Z,56768.00
2019-03-22T08:59:23.314Z,56576.00
2019-03-22T09:00:23.353Z,54656.00
2019-03-22T09:01:23.407Z,55648.00
2019-03-22T09:02:23.409Z,57856.00
2019-03-22T09:03:23.443Z,58688.00
2019-03-22T09:04:23.480Z,57664.00
2019-03-22T09:05:23.518Z,57952.00
2019-03-22T09:06:23.562Z,58848.00
2019-03-22T09:07:24.587Z,58528.00
2019-03-22T09:08:23.628Z,57120.00
2019-03-22T09:09:23.674Z,60000.00
2019-03-22T09:10:23.710Z,58208.00
2019-03-22T09:11:23.743Z,57888.00
2019-03-22T09:12:26.782Z,59968.00
2019-03-22T09:13:23.816Z,60480.00
2019-03-22T09:14:23.874Z,60256.00
2019-03-22T09:15:23.895Z,56736.00
2019-03-22T09:16:23.927Z,55936.00
2019-03-22T09:17:23.961Z,57408.00
2019-03-22T09:18:24.035Z,58944.00
2019-03-22T09:19:24.037Z,58240.00
2019-03-22T09:20:24.132Z,55584.00
2019-03-22T09:21:24.114Z,55392.00
2019-03-22T09:22:24.172Z,52640.00
2019-03-22T09:23:24.193Z,46880.00
2019-03-22T09:24:24.227Z,43232.00
2019-03-22T09:25:24.260Z,41696.00
2019-03-22T09:26:24.345Z,41504.00
2019-03-22T09:27:24.337Z,41184.00
2019-03-22T09:28:24.372Z,40288.00
2019-03-22T09:29:24.412Z,39744.00
2019-03-22T09:30:24.447Z,38528.00
2019-03-22T09:31:24.485Z,35520.00
2019-03-22T09:32:24.533Z,33888.00
2019-03-22T09:33:24.594Z,33408.00
2019-03-22T09:34:33.710Z,33856.00
2019-03-22T09:35:24.653Z,34624.00
2019-03-22T09:36:24.670Z,33728.00
2019-03-22T09:37:24.709Z,31712.00
2019-03-22T09:38:24.808Z,30688.00
2019-03-22T09:39:24.783Z,29856.00
2019-03-22T09:40:24.818Z,29632.00
2019-03-22T09:41:24.859Z,29632.00
2019-03-22T09:42:24.894Z,29440.00
2019-03-22T09:43:25.024Z,28960.00
2019-03-22T09:44:27.960Z,29600.00
2019-03-22T09:45:25.006Z,29888.00
2019-03-22T09:46:25.043Z,29664.00
2019-03-22T09:47:25.081Z,29888.00
2019-03-22T09:48:25.139Z,30720.00
2019-03-22T09:49:25.192Z,31552.00
2019-03-22T09:50:25.199Z,32512.00
2019-03-22T09:51:25.285Z,34400.00
2019-03-22T09:52:25.268Z,35456.00
2019-03-22T09:53:25.319Z,35040.00
2019-03-22T09:54:25.383Z,34432.00
2019-03-22T09:55:25.389Z,35296.00
2019-03-22T09:56:25.414Z,35872.00
2019-03-22T09:57:25.451Z,35872.00
2019-03-22T09:58:25.547Z,34784.00
2019-03-22T09:59:25.549Z,34432.00
2019-03-22T10:00:25.561Z,35008.00
2019-03-22T10:01:25.712Z,35776.00
2019-03-22T10:02:25.640Z,34336.00
2019-03-22T10:03:25.689Z,33376.00
2019-03-22T10:04:25.712Z,33568.00
2019-03-22T10:05:25.750Z,37856.00
2019-03-22T10:06:25.852Z,42144.00
2019-03-22T10:07:25.826Z,43040.00
2019-03-22T10:08:25.891Z,45728.00
2019-03-22T10:09:25.899Z,49376.00
2019-03-22T10:10:25.967Z,55744.00
2019-03-22T10:11:25.970Z,56128.00
2019-03-22T10:12:26.008Z,52896.00
2019-03-22T10:13:26.046Z,53888.00
2019-03-22T10:14:26.100Z,57984.00
2019-03-22T10:15:26.137Z,54944.00
2019-03-22T10:16:26.255Z,53024.00
2019-03-22T10:17:26.198Z,51904.00
2019-03-22T10:18:26.238Z,55040.00
2019-03-22T10:19:26.270Z,55424.00
2019-03-22T10:20:26.358Z,53408.00
2019-03-22T10:21:26.397Z,50688.00
2019-03-22T10:22:26.412Z,49280.00
2019-03-22T10:23:26.420Z,51328.00
2019-03-22T10:24:26.470Z,53792.00
2019-03-22T10:25:26.598Z,53920.00
2019-03-22T10:26:26.570Z,54272.00
2019-03-22T10:27:26.590Z,52384.00
2019-03-22T10:28:26.668Z,45792.00
2019-03-22T10:29:26.646Z,45120.00
2019-03-22T10:30:26.685Z,50432.00
2019-03-22T10:31:36.420Z,56672.00
2019-03-22T10:32:26.761Z,53408.00
2019-03-22T10:33:26.820Z,41952.00
2019-03-22T10:34:26.902Z,46208.00
2019-03-22T10:35:26.900Z,44032.00
2019-03-22T10:36:26.963Z,48896.00
2019-03-22T10:37:26.939Z,54304.00
2019-03-22T10:38:31.695Z,52128.00
2019-03-22T10:39:27.032Z,49504.00
2019-03-22T10:40:27.137Z,51328.00
2019-03-22T10:41:27.091Z,49760.00
2019-03-22T10:42:27.166Z,51776.00
2019-03-22T10:43:27.160Z,58656.00
2019-03-22T10:44:27.201Z,65088.00
2019-03-22T10:45:27.282Z,64512.00
2019-03-22T10:46:27.329Z,59296.00
2019-03-22T10:47:27.425Z,56288.00
2019-03-22T10:48:27.345Z,56960.00
2019-03-22T10:49:27.383Z,56032.00
2019-03-22T10:50:27.526Z,56192.00
2019-03-22T10:51:27.529Z,57312.00
2019-03-22T10:52:27.493Z,56960.00
2019-03-22T10:53:27.529Z,56608.00
2019-03-22T10:54:27.617Z,50560.00
2019-03-22T10:55:30.436Z,50272.00
2019-03-22T10:56:27.637Z,57760.00
2019-03-22T10:57:27.674Z,59328.00
2019-03-22T10:58:27.716Z,56800.00
2019-03-22T10:59:27.748Z,50048.00
2019-03-22T11:00:27.783Z,43680.00
2019-03-22T11:01:27.827Z,35232.00
2019-03-22T11:02:27.857Z,25856.00
2019-03-22T11:03:27.932Z,21056.00
2019-03-22T11:04:27.931Z,19104.00
2019-03-22T11:05:27.968Z,18016.00
2019-03-22T11:06:28.004Z,17280.00
2019-03-22T11:07:28.039Z,16116.00
2019-03-22T11:08:28.077Z,16564.00
2019-03-22T11:09:28.116Z,16928.00
2019-03-22T11:10:28.153Z,18048.00
2019-03-22T11:11:28.186Z,17984.00
2019-03-22T11:12:28.221Z,17088.00
2019-03-22T11:13:28.260Z,16992.00
2019-03-22T11:14:28.297Z,17568.00
2019-03-22T11:15:28.332Z,18304.00
2019-03-22T11:16:28.368Z,18240.00
2019-03-22T11:17:28.408Z,18048.00
2019-03-22T11:18:36.952Z,18304.00
2019-03-22T11:19:28.478Z,18528.00
2019-03-22T11:20:28.517Z,18528.00
2019-03-22T11:21:28.551Z,18784.00
2019-03-22T11:22:28.591Z,18368.00
2019-03-22T11:23:28.626Z,18112.00
2019-03-22T11:24:28.661Z,18400.00
2019-03-22T11:25:28.700Z,19104.00
2019-03-22T11:26:28.735Z,19616.00
2019-03-22T11:27:28.771Z,19328.00
2019-03-22T11:28:28.807Z,18976.00
2019-03-22T11:29:28.847Z,18816.00
2019-03-22T11:30:28.883Z,18688.00
2019-03-22T11:31:39.203Z,18208.00
2019-03-22T11:32:28.954Z,17632.00
2019-03-22T11:33:28.991Z,17344.00
2019-03-22T11:34:29.027Z,17056.00
2019-03-22T11:35:29.067Z,17088.00
2019-03-22T11:36:29.104Z,17040.00
2019-03-22T11:37:29.137Z,16788.00
2019-03-22T11:38:29.180Z,16584.00
2019-03-22T11:39:29.225Z,16824.00
2019-03-22T11:40:29.247Z,17112.00
2019-03-22T11:41:29.285Z,17536.00
2019-03-22T11:42:29.321Z,17376.00
2019-03-22T11:43:29.359Z,16956.00
2019-03-22T11:44:29.397Z,17120.00
2019-03-22T11:45:29.433Z,16952.00
2019-03-22T11:46:31.048Z,16892.00
2019-03-22T11:47:29.517Z,16360.00
2019-03-22T11:48:29.547Z,16672.00
2019-03-22T11:49:29.580Z,15560.00
2019-03-22T11:50:29.617Z,14744.00
2019-03-22T11:51:29.654Z,12880.00
2019-03-22T11:52:29.691Z,17312.00
2019-03-22T11:53:29.729Z,17248.00
2019-03-22T11:54:29.765Z,16648.00
2019-03-22T11:55:29.800Z,15920.00
2019-03-22T11:56:29.837Z,14032.00
2019-03-22T11:57:29.875Z,15412.00
2019-03-22T11:58:29.916Z,16420.00
2019-03-22T11:59:29.952Z,16252.00
2019-03-22T12:00:29.986Z,16052.00
2019-03-22T12:01:30.022Z,15320.00
2019-03-22T12:02:30.059Z,14852.00
2019-03-22T12:03:30.096Z,14756.00
2019-03-22T12:04:30.134Z,15008.00
2019-03-22T12:05:39.870Z,15332.00
2019-03-22T12:06:30.211Z,15424.00
2019-03-22T12:07:30.246Z,15180.00
2019-03-22T12:08:30.287Z,15044.00
2019-03-22T12:09:30.320Z,15212.00
2019-03-22T12:10:30.358Z,14976.00
2019-03-22T12:11:30.394Z,14880.00
2019-03-22T12:12:30.432Z,14772.00
2019-03-22T12:13:30.476Z,14548.00
2019-03-22T12:14:30.507Z,14836.00
2019-03-22T12:15:30.552Z,14856.00
2019-03-22T12:16:30.585Z,14988.00
2019-03-22T12:17:30.651Z,15068.00
2019-03-22T12:18:30.659Z,15124.00